Time;durP1;ratioP1;P1;durP2;ratioP2;P2;SDS_P1;SDS_P2;PMS_P1;PMS_P2;Temp;Humidity;BMP_temperature;BMP_pressure;BME280_temperature;BME280_humidity;BME280_pressure;Samples;Min_cycle;Max_cycle;Signal;HPM_P1;HPM_P2
2021/07/13 00:01:53;;;;;;;6.60;5.53;;;;;;;;;;5033069;28;20420;-76
2021/07/13 00:04:20;;;;;;;6.00;5.37;;;;;;;;;;5032931;28;20411;-76
2021/07/13 00:06:46;;;;;;;5.77;5.30;;;;;;;;;;5033206;28;20435;-76
2021/07/13 00:09:12;;;;;;;6.70;6.10;;;;;;;;;;5033114;28;20892;-77
2021/07/13 00:11:38;;;;;;;5.57;4.90;;;;;;;;;;5033199;28;20418;-77
2021/07/13 00:14:05;;;;;;;6.73;6.10;;;;;;;;;;5031207;28;20444;-76
2021/07/13 00:16:32;;;;;;;6.90;6.20;;;;;;;;;;5033180;28;20398;-76
2021/07/13 00:18:58;;;;;;;6.70;6.20;;;;;;;;;;5032962;28;20875;-76
2021/07/13 00:21:24;;;;;;;6.63;5.30;;;;;;;;;;5032866;28;20471;-77
2021/07/13 00:23:50;;;;;;;8.10;6.07;;;;;;;;;;5032672;28;20411;-76
2021/07/13 00:26:16;;;;;;;17.70;6.83;;;;;;;;;;5031752;28;20446;-76
2021/07/13 00:28:42;;;;;;;7.37;6.70;;;;;;;;;;5033034;28;20387;-76
2021/07/13 00:31:08;;;;;;;8.50;7.47;;;;;;;;;;5032945;28;20379;-77
2021/07/13 00:33:34;;;;;;;9.57;8.00;;;;;;;;;;5032500;28;20480;-77
2021/07/13 00:36:01;;;;;;;9.23;8.27;;;;;;;;;;5032793;28;20417;-76
2021/07/13 00:38:27;;;;;;;9.20;8.30;;;;;;;;;;5032805;28;20500;-77
2021/07/13 00:40:53;;;;;;;11.00;9.90;;;;;;;;;;5032834;28;20788;-77
2021/07/13 00:43:19;;;;;;;12.00;8.90;;;;;;;;;;5032387;28;20425;-76
2021/07/13 00:45:45;;;;;;;9.60;8.67;;;;;;;;;;5032663;28;20399;-77
2021/07/13 00:48:11;;;;;;;11.10;9.17;;;;;;;;;;5032554;28;20507;-77
2021/07/13 00:50:37;;;;;;;11.67;10.30;;;;;;;;;;5032621;28;20868;-77
2021/07/13 00:53:04;;;;;;;18.53;10.27;;;;;;;;;;5031141;28;20421;-76
2021/07/13 00:55:30;;;;;;;12.40;11.20;;;;;;;;;;5031462;28;20937;-77
2021/07/13 00:57:57;;;;;;;11.20;10.10;;;;;;;;;;5032768;28;20476;-77
2021/07/13 01:00:23;;;;;;;10.83;9.63;;;;;;;;;;5032568;28;20517;-78
2021/07/13 01:02:55;;;;;;;11.50;10.37;;;;;;;;;;5032351;28;20863;-76
2021/07/13 01:05:23;;;;;;;13.40;9.53;;;;;;;;;;5032566;28;20473;-78
2021/07/13 01:10:58;;;;;;;14.00;11.10;;;;;;;;;;5034932;28;20376;-78
2021/07/13 01:13:50;;;;;;;10.77;9.67;;;;;;;;;;5035826;28;20391;-77
2021/07/13 01:16:26;;;;;;;12.97;10.60;;;;;;;;;;5035083;28;20409;-78
2021/07/13 01:18:59;;;;;;;12.90;11.57;;;;;;;;;;5035208;28;20412;-77
2021/07/13 01:21:34;;;;;;;17.90;13.00;;;;;;;;;;5034639;28;20388;-79
2021/07/13 01:24:12;;;;;;;14.00;11.57;;;;;;;;;;5034327;28;20387;-79
2021/07/13 01:26:57;;;;;;;13.40;11.33;;;;;;;;;;5034450;28;20522;-79
2021/07/13 01:29:25;;;;;;;12.97;11.53;;;;;;;;;;5035744;28;20905;-78
2021/07/13 01:34:41;;;;;;;12.80;10.23;;;;;;;;;;5035610;28;20422;-78
2021/07/13 01:37:09;;;;;;;15.00;12.20;;;;;;;;;;5035623;28;20421;-78
2021/07/13 01:39:35;;;;;;;13.73;10.60;;;;;;;;;;5035546;28;20437;-78
2021/07/13 01:42:03;;;;;;;13.57;11.63;;;;;;;;;;5035499;28;20467;-80
2021/07/13 01:44:33;;;;;;;13.30;11.63;;;;;;;;;;5033823;28;20536;-78
2021/07/13 01:46:59;;;;;;;13.20;11.80;;;;;;;;;;5034390;28;20443;-79
2021/07/13 01:49:26;;;;;;;19.93;12.37;;;;;;;;;;5035380;28;20494;-78
2021/07/13 01:51:52;;;;;;;18.80;13.20;;;;;;;;;;5035137;28;20413;-78
2021/07/13 01:54:20;;;;;;;16.97;13.40;;;;;;;;;;5033575;28;20801;-78
2021/07/13 01:56:47;;;;;;;16.23;12.40;;;;;;;;;;5035311;28;20466;-77
2021/07/13 01:59:15;;;;;;;14.97;13.13;;;;;;;;;;5035198;28;20392;-79
2021/07/13 02:01:41;;;;;;;14.33;12.60;;;;;;;;;;5033868;28;20434;-78
2021/07/13 02:04:08;;;;;;;18.57;11.97;;;;;;;;;;5034688;28;20407;-80
2021/07/13 02:06:35;;;;;;;17.43;13.20;;;;;;;;;;5035130;28;20465;-77
2021/07/13 02:09:07;;;;;;;17.77;11.83;;;;;;;;;;5034923;28;20784;-81
2021/07/13 02:11:33;;;;;;;15.93;11.73;;;;;;;;;;5035249;28;20460;-77
2021/07/13 02:13:59;;;;;;;14.30;11.67;;;;;;;;;;5034463;28;20782;-79
2021/07/13 02:16:26;;;;;;;14.67;13.17;;;;;;;;;;5034785;28;20413;-77
2021/07/13 02:18:52;;;;;;;17.93;14.57;;;;;;;;;;5034886;28;20504;-77
2021/07/13 02:21:18;;;;;;;24.13;14.93;;;;;;;;;;5033224;28;20511;-78
2021/07/13 02:23:47;;;;;;;20.53;13.17;;;;;;;;;;5034349;28;20391;-77
2021/07/13 02:26:20;;;;;;;17.03;13.40;;;;;;;;;;5034403;28;20412;-78
2021/07/13 02:28:48;;;;;;;17.03;13.80;;;;;;;;;;5033739;28;20611;-78
2021/07/13 02:31:28;;;;;;;16.40;12.80;;;;;;;;;;5034680;28;20474;-78
2021/07/13 02:34:13;;;;;;;14.63;12.37;;;;;;;;;;5033198;28;20913;-79
2021/07/13 02:36:42;;;;;;;17.87;12.97;;;;;;;;;;5033356;28;20391;-78
2021/07/13 02:39:09;;;;;;;15.00;12.37;;;;;;;;;;5033329;28;20478;-78
2021/07/13 02:41:36;;;;;;;16.40;13.03;;;;;;;;;;5034577;28;20433;-78
2021/07/13 02:44:02;;;;;;;18.00;13.90;;;;;;;;;;5034135;28;20409;-79
2021/07/13 02:46:30;;;;;;;16.30;13.87;;;;;;;;;;5034216;28;20467;-78
2021/07/13 02:48:57;;;;;;;18.17;13.00;;;;;;;;;;5034187;28;20416;-78
2021/07/13 02:51:34;;;;;;;20.13;15.40;;;;;;;;;;5034142;28;20745;-78
2021/07/13 02:56:55;;;;;;;17.60;13.97;;;;;;;;;;5113263;22;20461;-78
2021/07/13 03:05:49;;;;;;;22.23;15.03;;;;;;;;;;5407141;22;20519;-78
2021/07/13 03:14:44;;;;;;;18.70;13.93;;;;;;;;;;5002035;28;20458;-78
2021/07/13 03:17:18;;;;;;;23.23;15.80;;;;;;;;;;4995495;28;20815;-78
2021/07/13 03:19:48;;;;;;;21.77;13.50;;;;;;;;;;5024325;28;20391;-77
2021/07/13 03:22:25;;;;;;;17.23;14.50;;;;;;;;;;5053548;28;20404;-78
2021/07/13 03:24:51;;;;;;;21.97;15.47;;;;;;;;;;5051988;28;20959;-78
2021/07/13 03:27:33;;;;;;;24.73;16.33;;;;;;;;;;5053255;28;20452;-78
2021/07/13 03:30:00;;;;;;;20.20;14.13;;;;;;;;;;5053247;28;20792;-77
2021/07/13 03:32:27;;;;;;;20.50;14.10;;;;;;;;;;5052705;28;20412;-78
2021/07/13 03:35:30;;;;;;;19.47;14.87;;;;;;;;;;5052859;28;20963;-79
2021/07/13 03:38:18;;;;;;;39.70;16.70;;;;;;;;;;4990995;28;20452;-79
2021/07/13 03:40:54;;;;;;;27.17;14.77;;;;;;;;;;5049506;28;20416;-80
2021/07/13 03:43:20;;;;;;;21.67;16.80;;;;;;;;;;5052112;28;20432;-79
2021/07/13 03:45:47;;;;;;;25.90;16.73;;;;;;;;;;5052140;28;20403;-79
2021/07/13 03:48:13;;;;;;;19.23;16.70;;;;;;;;;;5053308;28;20442;-78
2021/07/13 03:50:39;;;;;;;25.73;17.77;;;;;;;;;;5051938;28;20391;-78
2021/07/13 03:53:05;;;;;;;28.03;16.77;;;;;;;;;;5051798;28;20398;-78
2021/07/13 03:55:31;;;;;;;24.90;18.80;;;;;;;;;;5053234;28;20498;-80
2021/07/13 03:57:57;;;;;;;26.77;19.80;;;;;;;;;;5053245;28;20463;-80
2021/07/13 04:00:27;;;;;;;26.43;19.73;;;;;;;;;;5035212;28;20420;-79
2021/07/13 04:02:56;;;;;;;33.30;19.97;;;;;;;;;;5053046;28;20455;-79
2021/07/13 04:05:22;;;;;;;32.97;18.93;;;;;;;;;;5051623;28;20564;-79
2021/07/13 04:07:47;;;;;;;31.60;20.90;;;;;;;;;;5053102;28;20967;-79
2021/07/13 04:10:14;;;;;;;29.37;19.50;;;;;;;;;;5053068;28;20461;-78
2021/07/13 04:12:41;;;;;;;35.17;21.30;;;;;;;;;;5052938;28;20913;-79
2021/07/13 04:15:07;;;;;;;29.23;20.90;;;;;;;;;;5052650;28;20424;-78
2021/07/13 04:17:34;;;;;;;34.77;22.00;;;;;;;;;;5053186;28;20447;-78
2021/07/13 04:20:00;;;;;;;33.50;23.13;;;;;;;;;;5051694;28;20424;-79
2021/07/13 04:22:26;;;;;;;37.27;23.00;;;;;;;;;;5053001;28;20449;-79
2021/07/13 04:24:52;;;;;;;34.60;22.33;;;;;;;;;;5051120;28;20415;-80
2021/07/13 04:27:18;;;;;;;32.90;20.77;;;;;;;;;;5051550;28;20495;-79
2021/07/13 04:29:44;;;;;;;41.97;22.40;;;;;;;;;;5052906;28;20383;-78
2021/07/13 04:32:10;;;;;;;33.43;22.23;;;;;;;;;;5052767;28;20383;-80
2021/07/13 04:34:36;;;;;;;40.73;23.53;;;;;;;;;;5052208;28;20417;-79
2021/07/13 04:37:02;;;;;;;39.13;23.00;;;;;;;;;;5052597;28;20378;-79
2021/07/13 04:39:28;;;;;;;36.57;23.40;;;;;;;;;;5051542;28;20403;-79
2021/07/13 04:41:54;;;;;;;32.23;22.37;;;;;;;;;;5052686;28;20402;-79
2021/07/13 04:44:20;;;;;;;37.93;22.07;;;;;;;;;;5052487;28;20418;-79
2021/07/13 04:46:48;;;;;;;35.53;21.00;;;;;;;;;;5055080;28;20442;-79
2021/07/13 04:49:14;;;;;;;38.40;21.60;;;;;;;;;;5055108;28;20416;-80
2021/07/13 04:51:40;;;;;;;40.03;21.87;;;;;;;;;;5055125;28;20495;-79
2021/07/13 04:54:06;;;;;;;40.13;21.40;;;;;;;;;;5055021;28;20439;-79
2021/07/13 04:56:32;;;;;;;32.83;21.33;;;;;;;;;;5056336;28;20787;-80
2021/07/13 04:58:58;;;;;;;34.13;21.03;;;;;;;;;;5054928;28;20490;-79
2021/07/13 05:01:24;;;;;;;41.83;22.00;;;;;;;;;;5054730;28;20421;-79
2021/07/13 05:03:50;;;;;;;47.57;22.30;;;;;;;;;;5055703;28;20470;-80
2021/07/13 05:06:16;;;;;;;36.90;22.80;;;;;;;;;;5054738;28;20809;-80
2021/07/13 05:08:43;;;;;;;35.90;21.20;;;;;;;;;;5054983;28;20804;-80
2021/07/13 05:11:10;;;;;;;32.73;20.83;;;;;;;;;;5056242;28;20400;-80
2021/07/13 05:13:36;;;;;;;39.60;21.27;;;;;;;;;;5055538;28;20808;-80
2021/07/13 05:16:02;;;;;;;36.43;22.47;;;;;;;;;;5054412;28;20414;-81
2021/07/13 05:18:29;;;;;;;35.93;22.27;;;;;;;;;;5054758;28;20756;-79
2021/07/13 05:21:00;;;;;;;46.67;22.90;;;;;;;;;;5055904;28;20416;-80
2021/07/13 05:23:26;;;;;;;39.40;24.00;;;;;;;;;;5055583;28;20551;-78
2021/07/13 05:25:52;;;;;;;38.03;23.23;;;;;;;;;;5055450;28;20402;-81
2021/07/13 05:28:18;;;;;;;41.17;24.80;;;;;;;;;;5055442;28;20557;-81
2021/07/13 05:30:45;;;;;;;43.50;23.50;;;;;;;;;;5055546;28;20443;-79
2021/07/13 05:33:11;;;;;;;36.53;24.87;;;;;;;;;;5055190;28;20379;-81
2021/07/13 05:35:38;;;;;;;42.93;24.70;;;;;;;;;;5054136;28;20451;-80
2021/07/13 05:38:04;;;;;;;32.90;23.83;;;;;;;;;;5054060;28;20493;-79
2021/07/13 05:40:30;;;;;;;36.27;25.47;;;;;;;;;;5055522;28;20427;-80
2021/07/13 05:42:56;;;;;;;40.10;26.00;;;;;;;;;;5055095;28;20398;-81
2021/07/13 05:45:24;;;;;;;39.03;24.97;;;;;;;;;;5055245;28;20515;-80
2021/07/13 05:47:50;;;;;;;36.23;23.13;;;;;;;;;;5055183;28;20521;-79
2021/07/13 05:50:16;;;;;;;34.67;22.87;;;;;;;;;;5055494;28;20383;-78
2021/07/13 05:52:42;;;;;;;38.23;25.10;;;;;;;;;;5055230;28;20407;-81
2021/07/13 05:55:09;;;;;;;41.67;23.90;;;;;;;;;;5054441;28;20440;-80
2021/07/13 05:57:35;;;;;;;36.70;24.27;;;;;;;;;;5054056;28;20415;-79
2021/07/13 06:00:02;;;;;;;34.33;22.93;;;;;;;;;;5053774;28;20401;-79
2021/07/13 06:02:28;;;;;;;36.13;23.07;;;;;;;;;;5054058;28;20394;-78
2021/07/13 06:04:54;;;;;;;34.43;23.70;;;;;;;;;;5054492;28;20436;-78
2021/07/13 06:07:20;;;;;;;30.50;21.97;;;;;;;;;;5054835;28;20937;-78
2021/07/13 06:09:46;;;;;;;36.30;24.63;;;;;;;;;;5054954;28;20511;-79
2021/07/13 06:12:12;;;;;;;42.70;24.00;;;;;;;;;;5054726;28;20386;-78
2021/07/13 06:14:38;;;;;;;35.83;23.20;;;;;;;;;;5054435;28;20515;-81
2021/07/13 06:17:05;;;;;;;27.97;22.03;;;;;;;;;;5036936;28;20473;-82
2021/07/13 06:19:31;;;;;;;32.13;22.50;;;;;;;;;;5053861;28;20382;-80
2021/07/13 06:21:57;;;;;;;32.03;21.93;;;;;;;;;;5054825;28;20773;-82
2021/07/13 06:24:23;;;;;;;27.20;19.80;;;;;;;;;;5054183;28;20436;-79
2021/07/13 06:26:49;;;;;;;27.80;19.53;;;;;;;;;;5054474;28;20430;-80
2021/07/13 06:29:15;;;;;;;36.47;21.87;;;;;;;;;;5054488;28;20394;-81
2021/07/13 06:31:41;;;;;;;31.23;22.17;;;;;;;;;;5053217;28;20796;-81
2021/07/13 06:34:06;;;;;;;29.70;22.30;;;;;;;;;;5054068;28;20435;-81
2021/07/13 06:36:33;;;;;;;40.37;25.43;;;;;;;;;;5054395;28;20418;-82
2021/07/13 06:38:59;;;;;;;38.30;25.97;;;;;;;;;;5054345;28;20477;-82
2021/07/13 06:41:25;;;;;;;47.57;26.17;;;;;;;;;;5052955;28;20495;-80
2021/07/13 06:43:51;;;;;;;44.57;26.90;;;;;;;;;;5053933;28;20424;-81
2021/07/13 06:46:17;;;;;;;43.57;26.83;;;;;;;;;;5053962;28;20417;-80
2021/07/13 06:48:44;;;;;;;44.83;26.43;;;;;;;;;;5054451;28;20383;-80
2021/07/13 06:51:10;;;;;;;34.13;24.70;;;;;;;;;;5054036;28;20406;-80
2021/07/13 06:53:36;;;;;;;43.43;27.37;;;;;;;;;;5053861;28;20483;-80
2021/07/13 06:56:02;;;;;;;43.37;28.17;;;;;;;;;;5052705;28;20955;-82
2021/07/13 06:58:28;;;;;;;34.80;24.73;;;;;;;;;;5053737;28;20398;-82
2021/07/13 07:00:54;;;;;;;36.57;26.13;;;;;;;;;;5052551;28;20433;-79
2021/07/13 07:03:20;;;;;;;37.87;25.63;;;;;;;;;;5035736;28;20406;-80
2021/07/13 07:05:46;;;;;;;44.03;27.33;;;;;;;;;;5053623;28;20825;-80
2021/07/13 07:08:12;;;;;;;39.70;26.40;;;;;;;;;;5051711;28;20468;-80
2021/07/13 07:10:38;;;;;;;36.77;25.60;;;;;;;;;;5053823;28;20412;-81
2021/07/13 07:13:04;;;;;;;41.13;28.20;;;;;;;;;;5052301;28;20433;-80
2021/07/13 07:15:30;;;;;;;38.83;25.87;;;;;;;;;;5053590;28;20444;-81
2021/07/13 07:20:41;;;;;;;41.53;26.60;;;;;;;;;;5052840;28;20419;-81
2021/07/13 07:23:07;;;;;;;36.33;23.50;;;;;;;;;;5053245;28;20878;-81
2021/07/13 07:31:33;;;;;;;40.83;26.00;;;;;;;;;;5053581;28;20395;-81
2021/07/13 07:33:59;;;;;;;34.13;23.10;;;;;;;;;;5053143;28;20408;-80
2021/07/13 07:36:27;;;;;;;32.03;23.90;;;;;;;;;;5053269;28;20394;-81
2021/07/13 07:38:53;;;;;;;46.10;24.77;;;;;;;;;;5053236;28;20408;-81
2021/07/13 07:41:20;;;;;;;33.60;24.70;;;;;;;;;;5053176;28;20410;-79
2021/07/13 07:43:46;;;;;;;38.67;27.07;;;;;;;;;;5052880;28;20887;-80
2021/07/13 07:46:12;;;;;;;36.73;26.60;;;;;;;;;;5053080;28;20436;-79
2021/07/13 07:48:38;;;;;;;34.30;26.00;;;;;;;;;;5053043;28;20904;-80
2021/07/13 07:51:04;;;;;;;42.10;26.07;;;;;;;;;;5052987;28;20449;-80
2021/07/13 07:53:30;;;;;;;35.07;26.40;;;;;;;;;;5052833;28;20749;-80
2021/07/13 07:55:57;;;;;;;36.90;27.50;;;;;;;;;;5052949;28;20432;-79
2021/07/13 07:58:23;;;;;;;37.57;27.27;;;;;;;;;;5053092;28;20478;-79
2021/07/13 08:00:49;;;;;;;30.93;22.87;;;;;;;;;;5052846;28;20424;-79
2021/07/13 08:03:15;;;;;;;28.53;23.53;;;;;;;;;;5052684;28;20416;-79
2021/07/13 08:05:42;;;;;;;26.33;20.53;;;;;;;;;;5053079;28;20430;-79
2021/07/13 08:08:09;;;;;;;22.07;17.10;;;;;;;;;;5052904;28;20430;-79
2021/07/13 08:10:35;;;;;;;17.87;15.97;;;;;;;;;;5052918;28;20382;-78
2021/07/13 08:13:02;;;;;;;16.33;14.60;;;;;;;;;;5052441;28;20780;-80
2021/07/13 08:15:28;;;;;;;14.77;13.30;;;;;;;;;;5052877;28;20838;-79
2021/07/13 08:17:54;;;;;;;15.30;13.23;;;;;;;;;;5052961;28;20503;-78
2021/07/13 08:20:21;;;;;;;21.90;15.50;;;;;;;;;;5055330;28;20419;-78
2021/07/13 08:22:47;;;;;;;15.93;14.33;;;;;;;;;;5055586;28;20428;-79
2021/07/13 08:25:14;;;;;;;16.83;15.07;;;;;;;;;;5055701;28;20931;-80
2021/07/13 08:27:41;;;;;;;19.53;16.73;;;;;;;;;;5055475;28;20474;-80
2021/07/13 08:30:07;;;;;;;17.57;15.77;;;;;;;;;;5056872;28;20383;-78
2021/07/13 08:32:33;;;;;;;18.33;16.23;;;;;;;;;;5055601;28;20430;-80
2021/07/13 08:34:59;;;;;;;20.40;17.27;;;;;;;;;;5056296;28;20464;-80
2021/07/13 08:37:27;;;;;;;21.90;16.87;;;;;;;;;;5056610;28;20416;-78
2021/07/13 08:39:53;;;;;;;22.87;17.70;;;;;;;;;;5055441;28;20428;-80
2021/07/13 08:42:19;;;;;;;24.10;19.07;;;;;;;;;;5056486;28;20875;-79
2021/07/13 08:44:45;;;;;;;24.40;18.63;;;;;;;;;;5056362;28;20475;-79
2021/07/13 08:47:15;;;;;;;23.20;19.43;;;;;;;;;;5056554;28;21192;-79
2021/07/13 08:49:41;;;;;;;23.10;19.80;;;;;;;;;;5056545;28;20391;-79
2021/07/13 08:52:07;;;;;;;24.37;20.20;;;;;;;;;;5056497;28;20429;-77
2021/07/13 08:54:36;;;;;;;24.60;20.33;;;;;;;;;;5054614;28;20438;-79
2021/07/13 08:57:02;;;;;;;26.60;21.37;;;;;;;;;;5056457;28;20408;-79
2021/07/13 08:59:29;;;;;;;23.20;19.93;;;;;;;;;;5055151;28;20389;-78
2021/07/13 09:01:55;;;;;;;29.53;22.30;;;;;;;;;;5055035;28;20420;-78
2021/07/13 09:04:31;;;;;;;27.27;20.70;;;;;;;;;;5054473;28;20438;-77
2021/07/13 09:06:57;;;;;;;26.70;21.20;;;;;;;;;;5054853;28;20881;-79
2021/07/13 09:09:24;;;;;;;27.27;21.53;;;;;;;;;;5055827;28;20403;-78
2021/07/13 09:12:05;;;;;;;28.83;21.20;;;;;;;;;;5056040;28;20406;-78
2021/07/13 09:14:46;;;;;;;24.67;21.00;;;;;;;;;;5055619;28;20792;-78
2021/07/13 09:17:24;;;;;;;26.63;23.17;;;;;;;;;;5055963;28;20842;-79
2021/07/13 09:19:59;;;;;;;30.37;22.60;;;;;;;;;;5055936;28;20721;-78
2021/07/13 09:22:25;;;;;;;31.40;23.17;;;;;;;;;;5055914;28;20469;-78
2021/07/13 09:24:51;;;;;;;26.20;21.37;;;;;;;;;;5055312;28;20407;-78
2021/07/13 09:27:18;;;;;;;31.70;23.90;;;;;;;;;;5055649;28;20994;-78
2021/07/13 09:29:45;;;;;;;26.10;22.90;;;;;;;;;;5055351;28;20854;-80
2021/07/13 09:32:16;;;;;;;24.80;20.30;;;;;;;;;;5055015;28;20412;-77
2021/07/13 09:34:49;;;;;;;24.97;22.30;;;;;;;;;;5055358;28;20434;-79
2021/07/13 09:37:26;;;;;;;26.57;20.97;;;;;;;;;;5054430;28;20391;-79
2021/07/13 09:40:01;;;;;;;22.07;19.70;;;;;;;;;;5055674;28;20411;-78
2021/07/13 09:42:28;;;;;;;25.13;20.20;;;;;;;;;;5054351;28;20386;-78
2021/07/13 09:44:54;;;;;;;24.10;21.57;;;;;;;;;;5055100;28;20432;-78
2021/07/13 09:47:29;;;;;;;27.70;23.67;;;;;;;;;;5055370;28;20505;-77
2021/07/13 09:49:55;;;;;;;31.40;25.07;;;;;;;;;;5054026;28;20408;-78
2021/07/13 09:52:25;;;;;;;28.87;25.50;;;;;;;;;;5055309;28;20409;-78
2021/07/13 09:54:52;;;;;;;45.60;27.43;;;;;;;;;;5054973;28;20435;-78
2021/07/13 09:57:23;;;;;;;30.60;26.37;;;;;;;;;;5055142;28;20412;-78
2021/07/13 09:59:50;;;;;;;35.07;27.10;;;;;;;;;;5055237;28;20458;-77
2021/07/13 10:02:19;;;;;;;31.20;26.67;;;;;;;;;;5055090;28;20391;-79
2021/07/13 10:04:47;;;;;;;34.73;28.17;;;;;;;;;;5054745;28;20950;-77
2021/07/13 10:07:15;;;;;;;31.33;27.50;;;;;;;;;;5055024;28;20466;-77
2021/07/13 10:09:45;;;;;;;33.70;27.73;;;;;;;;;;5054845;28;20734;-78
2021/07/13 10:12:14;;;;;;;34.20;29.67;;;;;;;;;;5053494;28;20387;-77
2021/07/13 10:14:41;;;;;;;34.33;30.40;;;;;;;;;;5054431;28;20424;-78
2021/07/13 10:17:08;;;;;;;35.60;29.00;;;;;;;;;;5054796;28;20432;-77
2021/07/13 10:19:36;;;;;;;32.83;29.40;;;;;;;;;;5054779;28;20413;-77
2021/07/13 10:22:03;;;;;;;35.23;31.30;;;;;;;;;;5054569;28;20412;-78
2021/07/13 10:24:30;;;;;;;36.03;30.50;;;;;;;;;;5054151;28;20464;-77
2021/07/13 10:26:56;;;;;;;44.10;32.20;;;;;;;;;;5054635;28;20463;-79
2021/07/13 10:29:34;;;;;;;41.20;32.27;;;;;;;;;;5036812;28;20499;-77
2021/07/13 10:32:01;;;;;;;42.97;32.97;;;;;;;;;;5054454;28;20408;-78
2021/07/13 10:34:46;;;;;;;41.50;34.00;;;;;;;;;;5054022;28;20841;-77
2021/07/13 10:37:27;;;;;;;40.27;35.73;;;;;;;;;;5054474;28;20411;-78
2021/07/13 10:39:54;;;;;;;40.47;35.53;;;;;;;;;;5054360;28;20546;-79
2021/07/13 10:42:46;;;;;;;38.73;32.60;;;;;;;;;;5054088;28;20533;-78
2021/07/13 10:45:32;;;;;;;35.83;30.70;;;;;;;;;;5052236;28;20839;-78
2021/07/13 10:48:14;;;;;;;34.83;31.13;;;;;;;;;;5052885;28;20907;-79
2021/07/13 10:50:42;;;;;;;36.37;32.10;;;;;;;;;;5052969;28;20443;-79
2021/07/13 10:53:41;;;;;;;36.33;32.43;;;;;;;;;;5052841;28;20895;-79
2021/07/13 10:56:09;;;;;;;33.77;30.27;;;;;;;;;;5052734;28;20458;-82
2021/07/13 10:58:45;;;;;;;33.60;30.03;;;;;;;;;;5054156;28;20412;-78
2021/07/13 11:01:14;;;;;;;32.73;29.27;;;;;;;;;;5054056;28;20410;-79
2021/07/13 11:03:40;;;;;;;35.27;30.13;;;;;;;;;;5053616;28;20415;-78
2021/07/13 11:06:10;;;;;;;34.27;30.57;;;;;;;;;;5053665;28;20478;-79
2021/07/13 11:08:44;;;;;;;35.03;31.40;;;;;;;;;;5052495;28;20467;-78
2021/07/13 11:11:10;;;;;;;33.20;29.70;;;;;;;;;;5053815;28;20435;-79
2021/07/13 11:13:37;;;;;;;32.67;29.07;;;;;;;;;;5052100;28;20458;-79
2021/07/13 11:16:04;;;;;;;32.87;29.37;;;;;;;;;;5053539;28;20796;-80
2021/07/13 11:18:37;;;;;;;32.03;28.80;;;;;;;;;;5053663;28;20412;-79
2021/07/13 11:21:16;;;;;;;33.03;29.30;;;;;;;;;;5053653;28;20428;-79
2021/07/13 11:23:42;;;;;;;30.90;27.70;;;;;;;;;;5053249;28;20836;-79
2021/07/13 11:26:10;;;;;;;30.10;27.03;;;;;;;;;;5053561;28;20452;-80
2021/07/13 11:28:37;;;;;;;32.93;29.43;;;;;;;;;;5052086;28;20446;-79
2021/07/13 11:31:04;;;;;;;29.97;25.80;;;;;;;;;;5053374;28;20412;-79
2021/07/13 11:33:30;;;;;;;30.03;26.63;;;;;;;;;;5053440;28;20462;-79
2021/07/13 11:35:57;;;;;;;27.73;24.80;;;;;;;;;;5052123;28;20432;-79
2021/07/13 11:38:35;;;;;;;29.03;26.03;;;;;;;;;;5053225;28;20419;-79
2021/07/13 11:41:27;;;;;;;28.90;25.80;;;;;;;;;;5053690;28;20404;-79
2021/07/13 11:44:04;;;;;;;34.53;28.77;;;;;;;;;;5049230;28;20424;-79
2021/07/13 11:46:32;;;;;;;29.90;26.70;;;;;;;;;;5051870;28;20419;-79
2021/07/13 11:49:01;;;;;;;30.30;26.10;;;;;;;;;;5053593;28;20487;-79
2021/07/13 11:51:47;;;;;;;29.70;26.53;;;;;;;;;;5053390;28;20375;-79
2021/07/13 11:54:14;;;;;;;28.63;25.77;;;;;;;;;;5051998;28;20774;-79
2021/07/13 11:56:43;;;;;;;30.50;27.20;;;;;;;;;;5053159;28;20397;-79
2021/07/13 11:59:09;;;;;;;30.47;27.27;;;;;;;;;;5051925;28;20426;-78
2021/07/13 12:01:36;;;;;;;31.13;27.93;;;;;;;;;;5053196;28;20412;-79
2021/07/13 12:04:09;;;;;;;30.50;27.50;;;;;;;;;;5052698;28;20469;-79
2021/07/13 12:06:36;;;;;;;33.07;29.60;;;;;;;;;;5048823;28;20480;-79
2021/07/13 12:09:08;;;;;;;33.30;29.90;;;;;;;;;;5053116;28;20857;-78
2021/07/13 12:11:34;;;;;;;32.80;29.37;;;;;;;;;;5051673;28;20401;-78
2021/07/13 12:14:01;;;;;;;34.40;28.80;;;;;;;;;;5052632;28;20766;-78
2021/07/13 12:16:31;;;;;;;31.43;28.20;;;;;;;;;;5052914;28;20873;-77
2021/07/13 12:19:01;;;;;;;31.57;28.47;;;;;;;;;;5052775;28;20400;-78
2021/07/13 12:21:27;;;;;;;30.10;26.77;;;;;;;;;;5053328;28;20392;-78
2021/07/13 12:23:54;;;;;;;29.50;26.27;;;;;;;;;;5051318;28;20476;-78
2021/07/13 12:26:23;;;;;;;29.87;26.80;;;;;;;;;;5052674;28;20554;-77
2021/07/13 12:29:05;;;;;;;30.00;26.90;;;;;;;;;;5052649;28;20412;-78
2021/07/13 12:31:32;;;;;;;31.50;28.20;;;;;;;;;;5052767;28;20409;-77
2021/07/13 12:33:58;;;;;;;33.17;28.27;;;;;;;;;;5052437;28;20408;-77
2021/07/13 12:36:24;;;;;;;29.10;26.20;;;;;;;;;;5052640;28;20414;-78
2021/07/13 12:38:50;;;;;;;29.00;26.00;;;;;;;;;;5052678;28;20378;-78
2021/07/13 12:41:18;;;;;;;34.40;27.83;;;;;;;;;;5052451;28;20895;-77
2021/07/13 12:43:44;;;;;;;33.77;30.17;;;;;;;;;;5052359;28;20382;-77
2021/07/13 12:46:29;;;;;;;33.60;30.00;;;;;;;;;;5052611;28;20424;-77
2021/07/13 12:48:56;;;;;;;32.43;29.07;;;;;;;;;;5051161;28;20424;-77
2021/07/13 12:51:23;;;;;;;31.23;28.00;;;;;;;;;;5052461;28;20491;-77
2021/07/13 12:54:02;;;;;;;35.43;31.77;;;;;;;;;;5052093;28;20404;-78
2021/07/13 12:56:32;;;;;;;42.37;36.10;;;;;;;;;;5052619;28;20477;-77
2021/07/13 12:59:09;;;;;;;39.23;34.17;;;;;;;;;;5052384;28;20397;-77
2021/07/13 13:01:35;;;;;;;40.17;35.50;;;;;;;;;;5052394;28;20435;-77
2021/07/13 13:04:12;;;;;;;40.67;34.97;;;;;;;;;;5050842;28;20412;-77
2021/07/13 13:06:39;;;;;;;41.20;36.40;;;;;;;;;;5055795;28;20426;-77
2021/07/13 13:09:12;;;;;;;41.47;35.80;;;;;;;;;;5056353;28;20404;-77
2021/07/13 13:11:39;;;;;;;40.17;35.77;;;;;;;;;;5054716;28;20462;-78
2021/07/13 13:14:08;;;;;;;43.70;37.17;;;;;;;;;;5055522;28;20912;-78
2021/07/13 13:16:38;;;;;;;51.57;44.43;;;;;;;;;;5055943;28;20391;-77
2021/07/13 13:19:05;;;;;;;46.70;39.67;;;;;;;;;;5055839;28;20422;-78
2021/07/13 13:21:31;;;;;;;47.93;42.40;;;;;;;;;;5055656;28;20382;-77
2021/07/13 13:24:01;;;;;;;45.83;40.90;;;;;;;;;;5055374;28;20482;-77
2021/07/13 13:26:28;;;;;;;49.50;41.70;;;;;;;;;;5054376;28;20424;-77
2021/07/13 13:28:54;;;;;;;45.47;40.63;;;;;;;;;;5054379;28;20416;-77
2021/07/13 13:31:20;;;;;;;48.10;40.93;;;;;;;;;;5055550;28;20408;-78
2021/07/13 13:33:51;;;;;;;49.27;41.50;;;;;;;;;;5055200;28;20458;-77
2021/07/13 13:36:30;;;;;;;43.67;39.10;;;;;;;;;;5055605;28;20781;-78
2021/07/13 13:39:19;;;;;;;42.90;38.40;;;;;;;;;;5054159;28;20424;-79
2021/07/13 13:41:47;;;;;;;42.90;38.20;;;;;;;;;;5054842;28;20749;-78
2021/07/13 13:44:14;;;;;;;43.77;39.00;;;;;;;;;;5054965;28;20419;-77
2021/07/13 13:46:40;;;;;;;42.43;38.03;;;;;;;;;;5055352;28;20414;-77
2021/07/13 13:49:06;;;;;;;40.90;36.47;;;;;;;;;;5055463;28;20383;-78
2021/07/13 13:51:33;;;;;;;41.13;36.43;;;;;;;;;;5055095;28;20378;-78
2021/07/13 13:53:59;;;;;;;41.20;34.87;;;;;;;;;;5054743;28;20436;-78
2021/07/13 13:56:27;;;;;;;43.90;37.40;;;;;;;;;;5055431;28;20379;-78
2021/07/13 13:58:54;;;;;;;38.00;34.00;;;;;;;;;;5053949;28;20511;-78
2021/07/13 14:01:21;;;;;;;40.73;36.67;;;;;;;;;;5055076;28;20408;-78
2021/07/13 14:03:48;;;;;;;39.10;34.97;;;;;;;;;;5053206;28;20441;-78
2021/07/13 14:06:14;;;;;;;44.27;39.57;;;;;;;;;;5053576;28;20467;-78
2021/07/13 14:08:44;;;;;;;42.17;37.73;;;;;;;;;;5053711;28;20525;-78
2021/07/13 14:11:10;;;;;;;42.03;37.53;;;;;;;;;;5054981;28;20467;-78
2021/07/13 14:13:37;;;;;;;41.87;37.47;;;;;;;;;;5053128;28;20419;-81
2021/07/13 14:16:04;;;;;;;42.00;37.60;;;;;;;;;;5054467;28;20661;-78
2021/07/13 14:18:30;;;;;;;43.13;38.70;;;;;;;;;;5053241;28;20424;-78
2021/07/13 14:20:57;;;;;;;43.47;38.77;;;;;;;;;;5054746;28;20969;-78
2021/07/13 14:23:23;;;;;;;40.87;36.80;;;;;;;;;;5054358;28;20962;-78
2021/07/13 14:25:49;;;;;;;43.00;38.47;;;;;;;;;;5054412;28;20436;-79
2021/07/13 14:28:16;;;;;;;38.57;34.53;;;;;;;;;;5054393;28;20550;-79
2021/07/13 14:30:42;;;;;;;38.13;33.30;;;;;;;;;;5054655;28;20454;-78
2021/07/13 14:33:08;;;;;;;38.60;34.33;;;;;;;;;;5054079;28;20408;-79
2021/07/13 14:35:34;;;;;;;38.80;34.73;;;;;;;;;;5053031;28;20413;-79
2021/07/13 14:38:09;;;;;;;35.20;31.80;;;;;;;;;;5053255;28;20428;-80
2021/07/13 14:40:38;;;;;;;38.43;34.70;;;;;;;;;;5054369;28;20451;-80
2021/07/13 14:43:04;;;;;;;38.50;34.17;;;;;;;;;;5052698;28;20432;-79
2021/07/13 14:45:30;;;;;;;37.50;33.70;;;;;;;;;;5054124;28;20440;-79
2021/07/13 14:47:56;;;;;;;39.90;35.73;;;;;;;;;;5054057;28;20455;-79
2021/07/13 14:50:44;;;;;;;46.07;35.07;;;;;;;;;;5052924;28;20416;-79
2021/07/13 14:53:10;;;;;;;40.13;34.00;;;;;;;;;;5053886;28;20404;-79
2021/07/13 14:55:38;;;;;;;41.40;35.30;;;;;;;;;;5053787;28;20481;-79
2021/07/13 14:58:04;;;;;;;38.97;34.77;;;;;;;;;;5054156;28;20375;-79